sensor_id;sensor_type;location;lat;lon;timestamp;P1;durP1;ratioP1;P2;durP2;ratioP2
43154;SDS011;34212;51.018;13.586;2023-01-29T00:03:48;14.07;;;7.85;;
43154;SDS011;34212;51.018;13.586;2023-01-29T00:08:50;12.15;;;7.75;;
43154;SDS011;34212;51.018;13.586;2023-01-29T00:13:52;10.15;;;7.13;;
43154;SDS011;34212;51.018;13.586;2023-01-29T00:18:54;9.95;;;6.88;;
43154;SDS011;34212;51.018;13.586;2023-01-29T00:23:55;9.95;;;6.38;;
43154;SDS011;34212;51.018;13.586;2023-01-29T00:28:58;11.30;;;6.97;;
43154;SDS011;34212;51.018;13.586;2023-01-29T00:34:02;7.72;;;5.80;;
43154;SDS011;34212;51.018;13.586;2023-01-29T00:39:03;9.20;;;5.90;;
43154;SDS011;34212;51.018;13.586;2023-01-29T00:44:11;12.43;;;6.90;;
43154;SDS011;34212;51.018;13.586;2023-01-29T00:49:31;10.70;;;6.80;;
43154;SDS011;34212;51.018;13.586;2023-01-29T00:54:33;11.38;;;7.07;;
43154;SDS011;34212;51.018;13.586;2023-01-29T00:59:35;10.73;;;7.25;;
43154;SDS011;34212;51.018;13.586;2023-01-29T01:04:37;9.95;;;6.93;;
43154;SDS011;34212;51.018;13.586;2023-01-29T01:09:39;9.77;;;6.90;;
43154;SDS011;34212;51.018;13.586;2023-01-29T01:14:59;10.52;;;7.03;;
43154;SDS011;34212;51.018;13.586;2023-01-29T01:20:01;9.77;;;7.38;;
43154;SDS011;34212;51.018;13.586;2023-01-29T01:25:03;11.83;;;8.73;;
43154;SDS011;34212;51.018;13.586;2023-01-29T01:30:06;12.20;;;8.63;;
43154;SDS011;34212;51.018;13.586;2023-01-29T01:35:10;12.43;;;8.30;;
43154;SDS011;34212;51.018;13.586;2023-01-29T01:40:13;14.30;;;8.80;;
43154;SDS011;34212;51.018;13.586;2023-01-29T02:00:45;14.23;;;9.55;;
43154;SDS011;34212;51.018;13.586;2023-01-29T02:05:47;13.85;;;9.38;;
43154;SDS011;34212;51.018;13.586;2023-01-29T02:11:08;12.52;;;9.27;;
43154;SDS011;34212;51.018;13.586;2023-01-29T02:16:10;14.48;;;10.63;;
43154;SDS011;34212;51.018;13.586;2023-01-29T02:26:33;14.90;;;9.82;;
43154;SDS011;34212;51.018;13.586;2023-01-29T02:31:40;12.88;;;9.00;;
43154;SDS011;34212;51.018;13.586;2023-01-29T02:37:01;14.63;;;10.38;;
43154;SDS011;34212;51.018;13.586;2023-01-29T02:47:44;14.40;;;9.00;;
43154;SDS011;34212;51.018;13.586;2023-01-29T02:57:55;12.17;;;8.30;;
43154;SDS011;34212;51.018;13.586;2023-01-29T03:03:15;15.40;;;9.10;;
43154;SDS011;34212;51.018;13.586;2023-01-29T03:08:22;13.65;;;9.35;;
43154;SDS011;34212;51.018;13.586;2023-01-29T03:24:14;11.27;;;7.82;;
43154;SDS011;34212;51.018;13.586;2023-01-29T03:29:39;9.32;;;7.07;;
43154;SDS011;34212;51.018;13.586;2023-01-29T03:35:18;11.13;;;7.53;;
43154;SDS011;34212;51.018;13.586;2023-01-29T03:40:35;9.73;;;7.43;;
43154;SDS011;34212;51.018;13.586;2023-01-29T03:51:37;10.63;;;7.75;;
43154;SDS011;34212;51.018;13.586;2023-01-29T04:01:55;12.80;;;9.13;;
43154;SDS011;34212;51.018;13.586;2023-01-29T04:07:07;15.57;;;8.93;;
43154;SDS011;34212;51.018;13.586;2023-01-29T04:12:13;15.13;;;9.77;;
43154;SDS011;34212;51.018;13.586;2023-01-29T04:17:27;12.05;;;8.77;;
43154;SDS011;34212;51.018;13.586;2023-01-29T04:22:44;11.68;;;8.23;;
43154;SDS011;34212;51.018;13.586;2023-01-29T04:38:31;13.05;;;8.13;;
43154;SDS011;34212;51.018;13.586;2023-01-29T04:43:38;11.68;;;7.95;;
43154;SDS011;34212;51.018;13.586;2023-01-29T04:54:27;12.57;;;8.80;;
43154;SDS011;34212;51.018;13.586;2023-01-29T04:59:46;12.38;;;8.93;;
43154;SDS011;34212;51.018;13.586;2023-01-29T05:04:54;13.00;;;8.43;;
43154;SDS011;34212;51.018;13.586;2023-01-29T05:09:59;12.52;;;9.10;;
43154;SDS011;34212;51.018;13.586;2023-01-29T05:15:02;15.73;;;9.43;;
43154;SDS011;34212;51.018;13.586;2023-01-29T05:20:06;11.70;;;8.23;;
43154;SDS011;34212;51.018;13.586;2023-01-29T05:25:22;13.73;;;9.32;;
43154;SDS011;34212;51.018;13.586;2023-01-29T05:30:26;11.95;;;9.02;;
43154;SDS011;34212;51.018;13.586;2023-01-29T05:35:28;13.40;;;9.25;;
43154;SDS011;34212;51.018;13.586;2023-01-29T05:40:30;13.40;;;8.32;;
43154;SDS011;34212;51.018;13.586;2023-01-29T05:45:31;11.90;;;8.98;;
43154;SDS011;34212;51.018;13.586;2023-01-29T05:50:33;15.73;;;8.85;;
43154;SDS011;34212;51.018;13.586;2023-01-29T05:55:35;11.30;;;8.40;;
43154;SDS011;34212;51.018;13.586;2023-01-29T06:00:37;12.73;;;8.95;;
43154;SDS011;34212;51.018;13.586;2023-01-29T06:05:38;13.93;;;9.07;;
43154;SDS011;34212;51.018;13.586;2023-01-29T06:10:41;13.82;;;9.63;;
43154;SDS011;34212;51.018;13.586;2023-01-29T06:15:43;12.85;;;8.45;;
43154;SDS011;34212;51.018;13.586;2023-01-29T06:20:44;13.15;;;9.13;;
43154;SDS011;34212;51.018;13.586;2023-01-29T06:25:46;16.05;;;9.65;;
43154;SDS011;34212;51.018;13.586;2023-01-29T06:30:48;11.23;;;8.75;;
43154;SDS011;34212;51.018;13.586;2023-01-29T06:35:56;23.98;;;9.27;;
43154;SDS011;34212;51.018;13.586;2023-01-29T06:41:06;12.10;;;8.68;;
43154;SDS011;34212;51.018;13.586;2023-01-29T06:46:09;11.70;;;8.52;;
43154;SDS011;34212;51.018;13.586;2023-01-29T06:51:12;11.60;;;8.07;;
43154;SDS011;34212;51.018;13.586;2023-01-29T06:56:13;13.18;;;9.05;;
43154;SDS011;34212;51.018;13.586;2023-01-29T07:01:15;14.43;;;9.82;;
43154;SDS011;34212;51.018;13.586;2023-01-29T07:06:35;12.80;;;8.93;;
43154;SDS011;34212;51.018;13.586;2023-01-29T07:11:37;13.60;;;9.60;;
43154;SDS011;34212;51.018;13.586;2023-01-29T07:16:39;11.30;;;8.43;;
43154;SDS011;34212;51.018;13.586;2023-01-29T07:21:40;11.00;;;7.90;;
43154;SDS011;34212;51.018;13.586;2023-01-29T07:26:42;12.35;;;8.68;;
43154;SDS011;34212;51.018;13.586;2023-01-29T07:31:43;12.63;;;8.30;;
43154;SDS011;34212;51.018;13.586;2023-01-29T07:36:45;10.65;;;8.35;;
43154;SDS011;34212;51.018;13.586;2023-01-29T07:41:47;11.63;;;8.50;;
43154;SDS011;34212;51.018;13.586;2023-01-29T07:46:49;12.20;;;8.93;;
43154;SDS011;34212;51.018;13.586;2023-01-29T07:51:51;10.57;;;8.07;;
43154;SDS011;34212;51.018;13.586;2023-01-29T07:56:52;10.25;;;7.88;;
43154;SDS011;34212;51.018;13.586;2023-01-29T08:01:54;12.38;;;8.35;;
43154;SDS011;34212;51.018;13.586;2023-01-29T08:06:56;13.45;;;8.10;;
43154;SDS011;34212;51.018;13.586;2023-01-29T08:11:57;10.65;;;8.23;;
43154;SDS011;34212;51.018;13.586;2023-01-29T08:16:59;12.45;;;8.27;;
43154;SDS011;34212;51.018;13.586;2023-01-29T08:22:00;11.35;;;8.57;;
43154;SDS011;34212;51.018;13.586;2023-01-29T08:27:02;9.07;;;7.15;;
43154;SDS011;34212;51.018;13.586;2023-01-29T08:32:03;10.93;;;7.75;;
43154;SDS011;34212;51.018;13.586;2023-01-29T08:37:05;11.85;;;8.27;;
43154;SDS011;34212;51.018;13.586;2023-01-29T08:42:07;11.18;;;8.60;;
43154;SDS011;34212;51.018;13.586;2023-01-29T08:47:08;10.85;;;7.40;;
43154;SDS011;34212;51.018;13.586;2023-01-29T08:52:10;11.50;;;7.78;;
43154;SDS011;34212;51.018;13.586;2023-01-29T08:57:12;12.80;;;7.75;;
43154;SDS011;34212;51.018;13.586;2023-01-29T09:02:13;12.23;;;8.30;;
43154;SDS011;34212;51.018;13.586;2023-01-29T09:07:15;13.02;;;8.63;;
43154;SDS011;34212;51.018;13.586;2023-01-29T09:12:16;9.85;;;8.38;;
43154;SDS011;34212;51.018;13.586;2023-01-29T09:17:18;12.48;;;9.25;;
43154;SDS011;34212;51.018;13.586;2023-01-29T09:22:20;10.55;;;8.57;;
43154;SDS011;34212;51.018;13.586;2023-01-29T09:27:22;13.45;;;8.77;;
43154;SDS011;34212;51.018;13.586;2023-01-29T09:32:24;14.43;;;9.50;;
43154;SDS011;34212;51.018;13.586;2023-01-29T09:37:46;11.35;;;8.43;;
43154;SDS011;34212;51.018;13.586;2023-01-29T09:42:49;15.60;;;8.98;;
43154;SDS011;34212;51.018;13.586;2023-01-29T09:47:58;12.10;;;8.75;;
43154;SDS011;34212;51.018;13.586;2023-01-29T10:03:42;12.32;;;8.73;;
43154;SDS011;34212;51.018;13.586;2023-01-29T10:09:12;13.00;;;9.23;;
43154;SDS011;34212;51.018;13.586;2023-01-29T10:20:02;12.95;;;9.02;;
43154;SDS011;34212;51.018;13.586;2023-01-29T10:25:18;12.80;;;9.00;;
43154;SDS011;34212;51.018;13.586;2023-01-29T10:35:40;12.27;;;8.82;;
43154;SDS011;34212;51.018;13.586;2023-01-29T10:40:45;12.50;;;9.20;;
43154;SDS011;34212;51.018;13.586;2023-01-29T10:46:25;14.85;;;8.40;;
43154;SDS011;34212;51.018;13.586;2023-01-29T10:57:13;13.57;;;9.13;;
43154;SDS011;34212;51.018;13.586;2023-01-29T11:02:41;12.63;;;9.80;;
43154;SDS011;34212;51.018;13.586;2023-01-29T11:07:48;13.25;;;10.32;;
43154;SDS011;34212;51.018;13.586;2023-01-29T11:13:03;13.70;;;10.23;;
43154;SDS011;34212;51.018;13.586;2023-01-29T11:18:12;12.73;;;9.30;;
43154;SDS011;34212;51.018;13.586;2023-01-29T11:23:27;15.02;;;9.35;;
43154;SDS011;34212;51.018;13.586;2023-01-29T11:28:36;10.57;;;8.10;;
43154;SDS011;34212;51.018;13.586;2023-01-29T11:33:38;12.23;;;8.73;;
43154;SDS011;34212;51.018;13.586;2023-01-29T11:38:40;12.52;;;9.57;;
43154;SDS011;34212;51.018;13.586;2023-01-29T11:43:42;13.10;;;9.00;;
43154;SDS011;34212;51.018;13.586;2023-01-29T11:48:47;11.52;;;8.73;;
43154;SDS011;34212;51.018;13.586;2023-01-29T11:54:09;11.05;;;8.75;;
43154;SDS011;34212;51.018;13.586;2023-01-29T12:04:25;12.95;;;8.43;;
43154;SDS011;34212;51.018;13.586;2023-01-29T12:09:27;13.73;;;9.07;;
43154;SDS011;34212;51.018;13.586;2023-01-29T12:14:30;10.77;;;8.70;;
43154;SDS011;34212;51.018;13.586;2023-01-29T12:19:39;11.55;;;9.00;;
43154;SDS011;34212;51.018;13.586;2023-01-29T12:24:48;12.65;;;9.02;;
43154;SDS011;34212;51.018;13.586;2023-01-29T12:30:11;12.35;;;9.07;;
43154;SDS011;34212;51.018;13.586;2023-01-29T12:40:27;12.50;;;8.20;;
43154;SDS011;34212;51.018;13.586;2023-01-29T12:45:33;11.57;;;8.18;;
43154;SDS011;34212;51.018;13.586;2023-01-29T12:50:37;11.40;;;8.32;;
43154;SDS011;34212;51.018;13.586;2023-01-29T12:55:44;13.02;;;7.85;;
43154;SDS011;34212;51.018;13.586;2023-01-29T13:01:02;10.20;;;8.20;;
43154;SDS011;34212;51.018;13.586;2023-01-29T13:06:09;11.77;;;7.55;;
43154;SDS011;34212;51.018;13.586;2023-01-29T13:11:17;10.30;;;7.80;;
43154;SDS011;34212;51.018;13.586;2023-01-29T13:16:24;10.70;;;7.50;;
43154;SDS011;34212;51.018;13.586;2023-01-29T13:21:35;10.35;;;7.38;;
43154;SDS011;34212;51.018;13.586;2023-01-29T13:26:43;13.65;;;7.88;;
43154;SDS011;34212;51.018;13.586;2023-01-29T13:31:49;12.25;;;8.18;;
43154;SDS011;34212;51.018;13.586;2023-01-29T13:36:57;11.40;;;7.85;;
43154;SDS011;34212;51.018;13.586;2023-01-29T13:42:01;13.13;;;8.88;;
43154;SDS011;34212;51.018;13.586;2023-01-29T13:47:20;11.50;;;8.77;;
43154;SDS011;34212;51.018;13.586;2023-01-29T13:52:31;10.57;;;7.93;;
43154;SDS011;34212;51.018;13.586;2023-01-29T14:02:46;13.40;;;8.70;;
43154;SDS011;34212;51.018;13.586;2023-01-29T14:07:49;12.43;;;8.03;;
43154;SDS011;34212;51.018;13.586;2023-01-29T14:23:06;11.50;;;8.23;;
43154;SDS011;34212;51.018;13.586;2023-01-29T14:28:22;13.03;;;8.17;;
43154;SDS011;34212;51.018;13.586;2023-01-29T14:38:39;10.35;;;7.75;;
43154;SDS011;34212;51.018;13.586;2023-01-29T14:43:46;13.32;;;8.15;;
43154;SDS011;34212;51.018;13.586;2023-01-29T14:48:47;11.30;;;8.05;;
43154;SDS011;34212;51.018;13.586;2023-01-29T14:53:57;16.05;;;8.68;;
43154;SDS011;34212;51.018;13.586;2023-01-29T15:04:24;13.00;;;8.20;;
43154;SDS011;34212;51.018;13.586;2023-01-29T15:09:30;12.48;;;8.93;;
43154;SDS011;34212;51.018;13.586;2023-01-29T15:20:25;12.30;;;8.00;;
43154;SDS011;34212;51.018;13.586;2023-01-29T15:25:36;13.10;;;7.80;;
43154;SDS011;34212;51.018;13.586;2023-01-29T15:30:55;33.22;;;9.57;;
43154;SDS011;34212;51.018;13.586;2023-01-29T15:35:59;16.27;;;9.02;;
43154;SDS011;34212;51.018;13.586;2023-01-29T15:41:19;14.68;;;8.73;;
43154;SDS011;34212;51.018;13.586;2023-01-29T15:46:27;14.30;;;8.60;;
43154;SDS011;34212;51.018;13.586;2023-01-29T15:51:33;14.50;;;8.88;;
43154;SDS011;34212;51.018;13.586;2023-01-29T15:56:36;11.68;;;8.02;;
43154;SDS011;34212;51.018;13.586;2023-01-29T16:01:44;11.77;;;7.55;;
43154;SDS011;34212;51.018;13.586;2023-01-29T16:06:45;10.13;;;7.32;;
43154;SDS011;34212;51.018;13.586;2023-01-29T16:11:48;12.27;;;7.20;;
43154;SDS011;34212;51.018;13.586;2023-01-29T16:16:51;10.32;;;6.88;;
43154;SDS011;34212;51.018;13.586;2023-01-29T16:21:58;11.57;;;7.80;;
43154;SDS011;34212;51.018;13.586;2023-01-29T16:27:11;10.82;;;7.50;;
43154;SDS011;34212;51.018;13.586;2023-01-29T16:32:15;14.88;;;7.43;;
43154;SDS011;34212;51.018;13.586;2023-01-29T16:37:18;12.43;;;8.07;;
43154;SDS011;34212;51.018;13.586;2023-01-29T16:42:24;11.93;;;7.80;;
43154;SDS011;34212;51.018;13.586;2023-01-29T16:47:28;13.02;;;7.88;;
43154;SDS011;34212;51.018;13.586;2023-01-29T16:52:37;10.65;;;7.47;;
43154;SDS011;34212;51.018;13.586;2023-01-29T16:57:38;9.88;;;7.20;;
43154;SDS011;34212;51.018;13.586;2023-01-29T17:02:41;11.30;;;6.77;;
43154;SDS011;34212;51.018;13.586;2023-01-29T17:07:43;10.98;;;7.70;;
43154;SDS011;34212;51.018;13.586;2023-01-29T17:12:56;14.13;;;7.78;;
43154;SDS011;34212;51.018;13.586;2023-01-29T17:18:02;10.93;;;6.95;;
43154;SDS011;34212;51.018;13.586;2023-01-29T17:23:04;9.85;;;6.88;;
43154;SDS011;34212;51.018;13.586;2023-01-29T17:28:05;12.23;;;7.80;;
43154;SDS011;34212;51.018;13.586;2023-01-29T17:33:11;12.95;;;8.20;;
43154;SDS011;34212;51.018;13.586;2023-01-29T17:38:15;13.45;;;8.25;;
43154;SDS011;34212;51.018;13.586;2023-01-29T17:43:26;13.20;;;8.10;;
43154;SDS011;34212;51.018;13.586;2023-01-29T17:48:28;12.02;;;8.45;;
43154;SDS011;34212;51.018;13.586;2023-01-29T17:53:30;12.27;;;8.10;;
43154;SDS011;34212;51.018;13.586;2023-01-29T17:58:45;10.32;;;7.90;;
43154;SDS011;34212;51.018;13.586;2023-01-29T18:03:47;11.43;;;7.97;;
43154;SDS011;34212;51.018;13.586;2023-01-29T18:08:49;12.82;;;8.27;;
43154;SDS011;34212;51.018;13.586;2023-01-29T18:13:50;12.10;;;7.80;;
43154;SDS011;34212;51.018;13.586;2023-01-29T18:18:51;13.35;;;9.15;;
43154;SDS011;34212;51.018;13.586;2023-01-29T18:23:53;12.15;;;8.70;;
43154;SDS011;34212;51.018;13.586;2023-01-29T18:28:55;13.15;;;9.13;;
43154;SDS011;34212;51.018;13.586;2023-01-29T18:33:56;12.63;;;8.68;;
43154;SDS011;34212;51.018;13.586;2023-01-29T18:38:58;12.13;;;8.93;;
43154;SDS011;34212;51.018;13.586;2023-01-29T18:43:59;11.65;;;8.80;;
43154;SDS011;34212;51.018;13.586;2023-01-29T18:49:01;11.95;;;9.32;;
43154;SDS011;34212;51.018;13.586;2023-01-29T18:54:02;12.80;;;8.38;;
43154;SDS011;34212;51.018;13.586;2023-01-29T18:59:04;12.38;;;8.65;;
43154;SDS011;34212;51.018;13.586;2023-01-29T19:04:07;11.50;;;7.75;;
43154;SDS011;34212;51.018;13.586;2023-01-29T19:09:08;12.27;;;8.77;;
43154;SDS011;34212;51.018;13.586;2023-01-29T19:14:10;12.43;;;8.00;;
43154;SDS011;34212;51.018;13.586;2023-01-29T19:19:11;11.05;;;8.13;;
43154;SDS011;34212;51.018;13.586;2023-01-29T19:24:13;9.90;;;7.65;;
43154;SDS011;34212;51.018;13.586;2023-01-29T19:29:15;10.00;;;7.07;;
43154;SDS011;34212;51.018;13.586;2023-01-29T19:34:17;10.97;;;7.77;;
43154;SDS011;34212;51.018;13.586;2023-01-29T19:39:19;10.88;;;7.53;;
43154;SDS011;34212;51.018;13.586;2023-01-29T19:44:20;11.45;;;7.88;;
43154;SDS011;34212;51.018;13.586;2023-01-29T19:49:22;10.95;;;7.47;;
43154;SDS011;34212;51.018;13.586;2023-01-29T19:54:24;12.48;;;8.52;;
43154;SDS011;34212;51.018;13.586;2023-01-29T19:59:27;12.15;;;7.35;;
43154;SDS011;34212;51.018;13.586;2023-01-29T20:04:29;10.32;;;7.25;;
43154;SDS011;34212;51.018;13.586;2023-01-29T20:09:30;11.95;;;7.70;;
43154;SDS011;34212;51.018;13.586;2023-01-29T20:14:32;10.20;;;7.50;;
43154;SDS011;34212;51.018;13.586;2023-01-29T20:19:33;10.57;;;7.28;;
43154;SDS011;34212;51.018;13.586;2023-01-29T20:24:35;10.38;;;7.50;;
43154;SDS011;34212;51.018;13.586;2023-01-29T20:29:39;10.90;;;7.47;;
43154;SDS011;34212;51.018;13.586;2023-01-29T20:34:41;10.70;;;7.82;;
43154;SDS011;34212;51.018;13.586;2023-01-29T20:39:42;10.23;;;6.90;;
43154;SDS011;34212;51.018;13.586;2023-01-29T20:44:44;10.68;;;7.63;;
43154;SDS011;34212;51.018;13.586;2023-01-29T20:49:45;17.33;;;8.35;;
43154;SDS011;34212;51.018;13.586;2023-01-29T20:54:47;11.10;;;7.63;;
43154;SDS011;34212;51.018;13.586;2023-01-29T20:59:49;11.90;;;8.27;;
43154;SDS011;34212;51.018;13.586;2023-01-29T21:04:50;12.93;;;8.68;;
43154;SDS011;34212;51.018;13.586;2023-01-29T21:09:52;12.00;;;8.70;;
43154;SDS011;34212;51.018;13.586;2023-01-29T21:14:53;12.80;;;9.80;;
43154;SDS011;34212;51.018;13.586;2023-01-29T21:19:55;12.90;;;8.75;;
43154;SDS011;34212;51.018;13.586;2023-01-29T21:24:56;13.88;;;8.65;;
43154;SDS011;34212;51.018;13.586;2023-01-29T21:29:58;13.90;;;9.52;;
43154;SDS011;34212;51.018;13.586;2023-01-29T21:34:59;13.40;;;9.00;;
43154;SDS011;34212;51.018;13.586;2023-01-29T21:40:01;13.52;;;9.68;;
43154;SDS011;34212;51.018;13.586;2023-01-29T21:45:07;16.17;;;9.70;;
43154;SDS011;34212;51.018;13.586;2023-01-29T21:50:09;16.00;;;9.90;;
43154;SDS011;34212;51.018;13.586;2023-01-29T21:55:11;14.93;;;9.40;;
43154;SDS011;34212;51.018;13.586;2023-01-29T22:00:12;15.30;;;10.20;;
43154;SDS011;34212;51.018;13.586;2023-01-29T22:05:14;15.18;;;10.18;;
43154;SDS011;34212;51.018;13.586;2023-01-29T22:10:20;15.63;;;10.20;;
43154;SDS011;34212;51.018;13.586;2023-01-29T22:15:22;18.27;;;11.33;;
43154;SDS011;34212;51.018;13.586;2023-01-29T22:20:24;15.18;;;10.70;;
43154;SDS011;34212;51.018;13.586;2023-01-29T22:25:30;14.15;;;9.80;;
43154;SDS011;34212;51.018;13.586;2023-01-29T22:30:32;15.27;;;9.88;;
43154;SDS011;34212;51.018;13.586;2023-01-29T22:35:34;13.45;;;9.35;;
43154;SDS011;34212;51.018;13.586;2023-01-29T22:40:35;14.43;;;9.00;;
43154;SDS011;34212;51.018;13.586;2023-01-29T22:45:37;13.27;;;8.68;;
43154;SDS011;34212;51.018;13.586;2023-01-29T22:50:39;14.23;;;9.03;;
43154;SDS011;34212;51.018;13.586;2023-01-29T22:55:41;16.42;;;9.93;;
43154;SDS011;34212;51.018;13.586;2023-01-29T23:00:43;13.27;;;8.98;;
43154;SDS011;34212;51.018;13.586;2023-01-29T23:05:44;13.07;;;8.68;;
43154;SDS011;34212;51.018;13.586;2023-01-29T23:10:46;13.63;;;8.65;;
43154;SDS011;34212;51.018;13.586;2023-01-29T23:15:56;13.85;;;8.48;;
43154;SDS011;34212;51.018;13.586;2023-01-29T23:20:58;14.07;;;8.93;;
43154;SDS011;34212;51.018;13.586;2023-01-29T23:26:00;13.20;;;9.20;;
43154;SDS011;34212;51.018;13.586;2023-01-29T23:31:22;13.88;;;8.85;;
43154;SDS011;34212;51.018;13.586;2023-01-29T23:36:24;15.90;;;9.55;;
43154;SDS011;34212;51.018;13.586;2023-01-29T23:41:25;13.07;;;9.20;;
43154;SDS011;34212;51.018;13.586;2023-01-29T23:46:27;11.52;;;8.35;;
43154;SDS011;34212;51.018;13.586;2023-01-29T23:51:28;11.32;;;7.80;;
43154;SDS011;34212;51.018;13.586;2023-01-29T23:56:30;13.60;;;8.50;;
